Time;durP1;ratioP1;P1;durP2;ratioP2;P2;SDS_P1;SDS_P2;PMS_P1;PMS_P2;Temp;Humidity;BMP_temperature;BMP_pressure;BME280_temperature;BME280_humidity;BME280_pressure;Samples;Min_cycle;Max_cycle;Signal;HPM_P1;HPM_P2
2022/01/30 00:02:02;;;;;;;7.35;3.65;;;2.50;99.90;;;;;;5091573;28;20123;-57
2022/01/30 00:04:29;;;;;;;4.70;2.63;;;2.50;99.90;;;;;;5091683;28;20036;-57
2022/01/30 00:06:55;;;;;;;8.88;3.38;;;2.60;99.90;;;;;;5087850;28;20067;-56
2022/01/30 00:09:23;;;;;;;7.13;3.22;;;2.80;99.90;;;;;;5078026;28;20037;-56
2022/01/30 00:11:57;;;;;;;13.80;5.40;;;2.90;99.90;;;;;;5071360;28;20040;-55
2022/01/30 00:14:27;;;;;;;11.52;4.70;;;3.00;99.90;;;;;;5071393;28;20079;-59
2022/01/30 00:20:00;;;;;;;9.70;3.75;;;3.00;99.90;;;;;;5057247;28;20048;-59
2022/01/30 00:25:15;;;;;;;7.80;3.60;;;3.20;99.90;;;;;;5071479;28;20503;-59
2022/01/30 00:28:17;;;;;;;7.18;3.22;;;3.20;99.90;;;;;;5070906;28;20096;-59
2022/01/30 00:30:36;;;;;;;7.25;3.47;;;3.30;99.90;;;;;;5050503;28;20504;-59
2022/01/30 00:33:04;;;;;;;7.95;3.13;;;3.40;99.90;;;;;;5052958;28;20569;-57
2022/01/30 00:35:35;;;;;;;4.47;2.33;;;3.50;99.90;;;;;;5071042;28;20501;-57
2022/01/30 00:38:07;;;;;;;7.53;3.17;;;3.90;99.90;;;;;;5070784;28;20046;-57
2022/01/30 00:40:35;;;;;;;6.22;2.50;;;3.70;99.90;;;;;;5053020;28;20087;-58
2022/01/30 00:43:03;;;;;;;5.22;2.60;;;3.60;99.90;;;;;;5053175;28;20131;-59
2022/01/30 00:45:30;;;;;;;1.48;0.95;;;3.60;99.90;;;;;;5070642;28;20048;-59
2022/01/30 00:47:57;;;;;;;3.60;1.85;;;3.80;99.90;;;;;;5070709;28;20064;-58
2022/01/30 00:50:24;;;;;;;3.60;1.75;;;4.00;99.90;;;;;;5053048;28;20048;-58
2022/01/30 00:52:55;;;;;;;1.77;1.15;;;4.00;99.90;;;;;;5053052;28;20110;-58
2022/01/30 00:55:24;;;;;;;2.85;1.50;;;4.20;99.90;;;;;;5052835;28;20044;-59
2022/01/30 00:57:52;;;;;;;2.20;0.90;;;4.30;99.90;;;;;;5052286;28;20039;-59
2022/01/30 01:00:19;;;;;;;1.35;0.88;;;4.40;99.90;;;;;;5070863;28;20106;-59
2022/01/30 01:02:46;;;;;;;1.88;0.63;;;4.40;99.90;;;;;;5053092;28;20110;-59
2022/01/30 01:05:14;;;;;;;0.75;0.43;;;4.60;99.90;;;;;;5052916;28;20052;-59
2022/01/30 01:07:45;;;;;;;0.75;0.40;;;4.80;99.90;;;;;;5052459;28;20048;-59
2022/01/30 01:10:26;;;;;;;0.75;0.40;;;5.00;99.90;;;;;;5070749;28;20119;-59
2022/01/30 01:23:44;;;;;;;0.85;0.60;;;5.00;99.90;;;;;;5056382;28;20044;-59
2022/01/30 01:26:11;;;;;;;4.90;0.40;;;4.80;99.90;;;;;;5074112;28;20094;-60
2022/01/30 01:28:38;;;;;;;1.40;0.55;;;4.80;99.90;;;;;;5055829;28;20405;-59
2022/01/30 01:31:05;;;;;;;0.55;0.43;;;4.70;99.90;;;;;;5073968;28;20036;-59
2022/01/30 01:36:17;;;;;;;6.03;0.70;;;4.80;99.90;;;;;;5097024;22;20061;-50
2022/01/30 01:38:44;;;;;;;0.45;0.25;;;5.00;99.90;;;;;;5091857;28;20105;-55
2022/01/30 01:41:11;;;;;;;0.85;0.30;;;5.00;99.90;;;;;;5071234;28;20054;-52
2022/01/30 01:43:38;;;;;;;;;;;4.90;99.90;;;;;;5074227;28;20238;-54
2022/01/30 01:46:14;;;;;;;0.47;0.25;;;4.90;99.90;;;;;;5073760;28;19921;-50
2022/01/30 01:48:42;;;;;;;0.75;0.40;;;5.00;99.90;;;;;;5071967;28;20063;-50
2022/01/30 01:51:17;;;;;;;0.95;0.38;;;5.10;99.90;;;;;;5073782;28;20485;-50
2022/01/30 01:53:50;;;;;;;0.20;0.13;;;5.10;99.90;;;;;;5055759;28;20056;-54
2022/01/30 01:56:18;;;;;;;0.38;0.15;;;5.10;99.90;;;;;;5055456;28;20102;-51
2022/01/30 01:58:52;;;;;;;1.38;0.03;;;5.10;99.90;;;;;;5055305;28;20393;-52
2022/01/30 02:01:38;;;;;;;0.22;0.20;;;5.00;99.90;;;;;;5073691;28;20055;-53
2022/01/30 02:04:05;;;;;;;0.13;0.10;;;5.00;99.90;;;;;;5055558;28;20040;-50
2022/01/30 02:06:31;;;;;;;0.15;0.10;;;5.00;99.90;;;;;;5073076;28;20090;-50
2022/01/30 02:09:06;;;;;;;0.00;0.00;;;5.10;99.90;;;;;;5071826;28;20070;-50
2022/01/30 02:11:37;;;;;;;0.00;0.00;;;5.10;99.90;;;;;;5055393;28;20045;-52
2022/01/30 02:25:24;;;;;;;1.23;0.68;;;4.90;99.90;;;;;;5071749;28;20041;-50
2022/01/30 02:27:56;;;;;;;1.67;0.70;;;4.40;99.90;;;;;;5054578;28;20041;-49
2022/01/30 02:30:26;;;;;;;1.00;0.60;;;4.20;99.90;;;;;;5055125;28;20048;-52
2022/01/30 02:32:55;;;;;;;1.52;0.63;;;4.10;99.90;;;;;;5071436;28;20045;-52
2022/01/30 02:35:22;;;;;;;1.58;0.70;;;4.10;99.90;;;;;;5054844;28;20044;-50
2022/01/30 02:37:52;;;;;;;0.88;0.57;;;4.00;99.90;;;;;;5054228;28;20143;-52
2022/01/30 02:40:19;;;;;;;0.85;0.50;;;4.00;99.90;;;;;;5054908;28;20067;-50
2022/01/30 02:42:50;;;;;;;1.77;0.70;;;4.10;99.90;;;;;;5054622;28;20036;-50
2022/01/30 02:45:19;;;;;;;1.30;0.63;;;4.00;99.90;;;;;;5054719;28;20037;-54
2022/01/30 02:50:34;;;;;;;0.95;0.60;;;4.00;99.90;;;;;;5071250;28;20407;-52
2022/01/30 02:53:05;;;;;;;1.23;0.30;;;4.00;99.90;;;;;;5054512;28;20060;-54
2022/01/30 02:55:32;;;;;;;1.50;0.70;;;4.30;99.90;;;;;;5071146;28;20052;-51
2022/01/30 02:57:59;;;;;;;1.15;0.70;;;4.30;99.90;;;;;;5053915;28;20127;-53
2022/01/30 03:00:26;;;;;;;0.70;0.60;;;4.00;99.90;;;;;;5071182;28;20075;-52
2022/01/30 03:02:52;;;;;;;1.08;0.60;;;4.00;99.90;;;;;;5070842;28;20040;-51
2022/01/30 03:05:21;;;;;;;0.93;0.60;;;4.00;99.90;;;;;;5054522;28;20032;-49
2022/01/30 03:07:48;;;;;;;;;;;4.00;99.90;;;;;;5072209;28;20086;-52
2022/01/30 03:10:15;;;;;;;1.27;0.40;;;4.00;99.90;;;;;;5070921;28;19946;-50
2022/01/30 03:12:42;;;;;;;0.30;0.25;;;4.00;99.90;;;;;;5054223;28;20068;-52
2022/01/30 03:15:10;;;;;;;0.77;0.50;;;4.20;99.90;;;;;;5053926;28;20135;-49
2022/01/30 03:17:40;;;;;;;2.08;0.40;;;4.10;99.90;;;;;;5053635;28;20070;-50
2022/01/30 03:20:09;;;;;;;0.38;0.38;;;4.10;99.90;;;;;;5072345;28;20047;-52
2022/01/30 03:22:36;;;;;;;2.05;0.45;;;4.00;99.90;;;;;;5070543;28;20048;-52
2022/01/30 03:25:03;;;;;;;;;;;4.00;99.90;;;;;;5072439;28;20043;-51
2022/01/30 03:27:53;;;;;;;1.55;0.57;;;4.00;99.90;;;;;;5070108;28;19920;-53
2022/01/30 03:30:34;;;;;;;0.75;0.50;;;3.90;99.90;;;;;;5053965;28;20086;-53
2022/01/30 03:33:13;;;;;;;0.90;0.52;;;4.10;99.90;;;;;;5053854;28;20579;-49
2022/01/30 03:35:40;;;;;;;1.58;0.60;;;4.20;99.90;;;;;;5053654;28;20511;-50
2022/01/30 03:38:08;;;;;;;2.20;0.50;;;4.20;99.90;;;;;;5053404;28;20119;-50
2022/01/30 03:40:35;;;;;;;1.63;0.60;;;4.00;99.90;;;;;;5071226;28;20143;-49
2022/01/30 03:43:03;;;;;;;0.30;0.30;;;3.80;99.90;;;;;;5053533;28;20128;-54
2022/01/30 03:45:31;;;;;;;1.25;0.40;;;3.90;99.90;;;;;;5053689;28;20064;-52
2022/01/30 03:47:58;;;;;;;0.63;0.38;;;4.00;99.90;;;;;;5053369;28;20086;-50
2022/01/30 03:50:38;;;;;;;0.80;0.50;;;4.00;99.90;;;;;;5070324;28;20039;-49
2022/01/30 03:53:06;;;;;;;1.27;0.60;;;4.00;99.90;;;;;;5053644;28;20136;-50
2022/01/30 03:55:33;;;;;;;;;;;4.00;99.90;;;;;;5053740;28;20088;-52
2022/01/30 03:58:01;;;;;;;2.15;0.70;;;4.00;99.90;;;;;;5053166;28;19920;-54
2022/01/30 04:00:30;;;;;;;2.70;0.90;;;4.00;99.90;;;;;;5053510;28;20045;-51
2022/01/30 04:03:04;;;;;;;1.65;0.60;;;4.40;99.90;;;;;;5053457;28;20045;-51
2022/01/30 04:05:32;;;;;;;1.45;0.50;;;3.90;99.90;;;;;;5053267;28;20064;-51
2022/01/30 04:08:02;;;;;;;1.13;0.22;;;3.90;99.90;;;;;;5071101;28;20040;-51
2022/01/30 04:10:37;;;;;;;0.40;0.27;;;3.90;99.90;;;;;;5053302;28;20408;-53
2022/01/30 04:13:17;;;;;;;1.65;0.30;;;3.80;99.90;;;;;;5070186;28;20295;-52
2022/01/30 04:15:58;;;;;;;0.98;0.20;;;4.00;99.90;;;;;;5053391;28;20052;-54
2022/01/30 04:18:56;;;;;;;0.95;0.32;;;4.10;99.90;;;;;;5056955;28;20159;-51
2022/01/30 04:21:28;;;;;;;0.38;0.28;;;4.10;99.90;;;;;;5053158;28;20508;-52
2022/01/30 04:24:28;;;;;;;1.13;0.20;;;4.10;99.90;;;;;;5037069;28;20102;-51
2022/01/30 04:27:20;;;;;;;0.45;0.20;;;4.00;99.90;;;;;;5052873;28;20059;-51
2022/01/30 04:30:02;;;;;;;1.45;0.40;;;4.00;99.90;;;;;;5053622;28;20185;-52
2022/01/30 04:32:43;;;;;;;2.28;0.20;;;4.00;99.90;;;;;;5069774;28;20047;-51
2022/01/30 04:35:31;;;;;;;1.63;0.28;;;3.90;99.90;;;;;;5069738;28;20131;-53
2022/01/30 04:53:52;;;;;;;2.75;0.30;;;4.00;99.90;;;;;;5049116;28;20186;-51
2022/01/30 04:57:00;;;;;;;0.85;0.20;;;4.20;99.90;;;;;;5056726;28;20512;-54
2022/01/30 05:03:31;;;;;;;2.42;0.50;;;4.20;99.90;;;;;;5031491;28;20041;-49
2022/01/30 05:06:53;;;;;;;0.50;0.30;;;4.10;99.90;;;;;;5062247;28;20051;-50
2022/01/30 05:09:42;;;;;;;1.10;0.38;;;3.90;99.90;;;;;;5074842;28;20071;-53
2022/01/30 05:12:44;;;;;;;0.50;0.20;;;3.80;99.90;;;;;;5045696;28;20136;-51
2022/01/30 05:15:23;;;;;;;2.75;0.40;;;3.80;99.90;;;;;;5056388;28;20044;-54
2022/01/30 05:18:09;;;;;;;1.55;0.30;;;3.70;99.90;;;;;;5055972;28;20521;-53
2022/01/30 05:20:52;;;;;;;0.60;0.40;;;3.70;99.90;;;;;;5056388;28;20048;-54
2022/01/30 05:23:30;;;;;;;0.30;0.28;;;3.70;99.90;;;;;;5073008;28;20048;-54
2022/01/30 05:26:10;;;;;;;0.57;0.30;;;3.70;99.90;;;;;;5056326;28;20048;-53
2022/01/30 05:28:47;;;;;;;0.70;0.30;;;3.70;99.90;;;;;;5055704;28;20093;-50
2022/01/30 05:31:37;;;;;;;0.95;0.22;;;3.70;99.90;;;;;;5042541;28;20055;-53
2022/01/30 05:34:23;;;;;;;0.93;0.77;;;3.80;99.90;;;;;;5074037;28;20523;-51
2022/01/30 05:37:11;;;;;;;0.47;0.47;;;3.70;99.90;;;;;;5055430;28;20049;-51
2022/01/30 05:39:56;;;;;;;0.50;0.30;;;3.80;99.90;;;;;;5074275;28;20084;-49
2022/01/30 05:42:30;;;;;;;0.98;0.50;;;3.90;99.90;;;;;;5072455;28;20048;-50
2022/01/30 05:45:17;;;;;;;0.60;0.38;;;4.00;99.90;;;;;;5055824;28;20041;-52
2022/01/30 05:48:14;;;;;;;1.42;0.70;;;3.90;99.90;;;;;;5072220;28;20691;-52
2022/01/30 05:51:10;;;;;;;1.80;0.50;;;3.70;99.90;;;;;;5001887;28;20109;-49
2022/01/30 05:53:46;;;;;;;0.30;0.30;;;3.70;99.90;;;;;;5055524;28;20044;-50
2022/01/30 05:56:17;;;;;;;0.35;0.22;;;3.70;99.90;;;;;;5072434;28;20045;-50
2022/01/30 05:58:44;;;;;;;0.30;0.30;;;3.80;99.90;;;;;;5055271;28;20512;-53
2022/01/30 06:01:38;;;;;;;3.72;1.90;;;3.90;99.90;;;;;;5072309;28;20115;-49
2022/01/30 06:04:18;;;;;;;1.20;0.68;;;3.90;99.90;;;;;;5055151;28;20128;-52
2022/01/30 06:06:50;;;;;;;1.75;0.68;;;3.90;99.90;;;;;;5072213;28;20048;-51
2022/01/30 06:11:52;;;;;;;1.90;0.95;;;3.70;99.90;;;;;;5072265;28;20036;-51
2022/01/30 06:14:22;;;;;;;4.45;3.78;;;3.70;99.90;;;;;;5055391;28;20094;-51
2022/01/30 06:16:54;;;;;;;5.78;2.35;;;3.80;99.90;;;;;;5054790;28;20630;-55
2022/01/30 06:19:40;;;;;;;3.45;1.48;;;3.80;99.90;;;;;;5073191;28;20059;-54
2022/01/30 06:22:25;;;;;;;4.57;1.63;;;3.90;99.90;;;;;;5073439;28;20047;-50
2022/01/30 06:25:11;;;;;;;5.07;1.67;;;4.00;99.90;;;;;;5073137;28;20060;-51
2022/01/30 06:27:56;;;;;;;4.65;1.98;;;4.00;99.90;;;;;;5072682;28;20054;-51
2022/01/30 06:30:52;;;;;;;3.67;1.35;;;4.00;99.90;;;;;;5035424;28;20062;-55
2022/01/30 06:33:54;;;;;;;1.23;0.73;;;4.20;99.90;;;;;;5072770;28;20131;-54
2022/01/30 06:36:53;;;;;;;4.28;1.05;;;4.00;99.90;;;;;;5072194;28;20102;-54
2022/01/30 06:39:42;;;;;;;6.15;2.03;;;4.20;99.90;;;;;;5054584;28;20109;-50
2022/01/30 06:42:29;;;;;;;2.88;1.23;;;4.40;99.90;;;;;;5072999;28;20535;-50
2022/01/30 06:45:18;;;;;;;2.45;1.20;;;4.40;99.90;;;;;;5072948;28;20055;-51
2022/01/30 06:48:09;;;;;;;3.47;0.88;;;4.40;99.90;;;;;;5034216;28;20132;-51
2022/01/30 06:51:11;;;;;;;1.63;0.50;;;4.50;99.90;;;;;;4991034;28;20120;-50
2022/01/30 06:53:56;;;;;;;1.70;0.80;;;4.40;99.90;;;;;;5065990;28;20060;-51
2022/01/30 06:56:42;;;;;;;1.67;1.10;;;4.30;99.90;;;;;;5072438;28;20102;-53
2022/01/30 06:59:27;;;;;;;6.38;1.90;;;4.30;99.90;;;;;;5072486;28;20060;-52
2022/01/30 07:02:12;;;;;;;0.63;0.40;;;4.40;99.90;;;;;;5072259;28;20052;-50
2022/01/30 07:04:58;;;;;;;5.03;0.65;;;4.40;99.90;;;;;;5072247;28;20618;-51
2022/01/30 07:07:31;;;;;;;2.05;0.70;;;4.60;99.90;;;;;;5053904;28;20082;-54
2022/01/30 07:09:58;;;;;;;1.08;0.50;;;4.80;99.90;;;;;;5072242;28;20568;-53
2022/01/30 07:12:25;;;;;;;0.60;0.40;;;5.20;99.90;;;;;;5072260;28;20044;-53
2022/01/30 07:14:51;;;;;;;0.88;0.40;;;5.40;99.90;;;;;;5071380;28;20068;-52
2022/01/30 07:17:18;;;;;;;0.40;0.30;;;5.50;99.90;;;;;;5071378;28;20040;-50
2022/01/30 07:19:45;;;;;;;0.55;0.20;;;5.70;99.90;;;;;;5072391;28;20040;-50
2022/01/30 07:22:12;;;;;;;0.30;0.20;;;6.00;99.90;;;;;;5071922;28;20079;-51
2022/01/30 07:24:39;;;;;;;16.15;9.02;;;6.20;99.90;;;;;;5071982;28;20044;-50
2022/01/30 07:27:06;;;;;;;2.15;0.60;;;6.10;99.90;;;;;;5071482;28;20641;-52
2022/01/30 07:29:33;;;;;;;0.77;0.25;;;6.00;99.90;;;;;;5071650;28;20036;-53
2022/01/30 07:32:00;;;;;;;0.10;0.10;;;6.10;99.90;;;;;;5071889;28;20047;-50
2022/01/30 07:34:27;;;;;;;0.90;0.57;;;6.10;99.90;;;;;;5071807;28;20036;-51
2022/01/30 07:37:43;;;;;;;0.20;0.17;;;6.20;99.90;;;;;;5104413;22;20043;-57
2022/01/30 07:40:10;;;;;;;0.60;0.20;;;6.00;99.90;;;;;;5086660;28;20052;-58
2022/01/30 07:42:37;;;;;;;0.10;0.05;;;6.00;99.90;;;;;;5112189;28;20756;-59
2022/01/30 07:45:05;;;;;;;0.10;0.10;;;6.00;99.90;;;;;;5093804;28;20047;-59
2022/01/30 07:47:32;;;;;;;;;;;6.00;99.90;;;;;;5107108;28;20491;-59
2022/01/30 07:49:59;;;;;;;0.50;0.10;;;6.00;99.90;;;;;;5094135;28;19969;-59
2022/01/30 07:52:25;;;;;;;1.60;0.20;;;6.00;99.90;;;;;;5091788;28;20043;-58
2022/01/30 07:54:52;;;;;;;1.65;0.10;;;5.90;99.90;;;;;;5091875;28;20090;-59
2022/01/30 07:57:19;;;;;;;0.45;0.15;;;5.80;99.90;;;;;;5107919;28;20047;-59
2022/01/30 07:59:46;;;;;;;0.70;0.13;;;5.90;99.90;;;;;;5112031;28;20043;-59
2022/01/30 08:02:13;;;;;;;0.30;0.10;;;5.90;99.90;;;;;;5111507;28;20100;-59
2022/01/30 08:04:40;;;;;;;0.10;0.10;;;5.80;99.90;;;;;;5111878;28;20118;-59
2022/01/30 08:07:07;;;;;;;0.22;0.10;;;5.80;99.90;;;;;;5111393;28;20756;-59
2022/01/30 08:09:36;;;;;;;1.35;0.10;;;5.70;99.90;;;;;;5112031;28;20069;-59
2022/01/30 08:12:03;;;;;;;1.65;0.20;;;5.70;99.90;;;;;;5111963;28;20105;-59
2022/01/30 08:14:30;;;;;;;;;;;5.70;99.90;;;;;;5112338;28;20104;-59
2022/01/30 08:16:57;;;;;;;0.03;0.03;;;5.60;99.90;;;;;;5111459;28;20332;-59
2022/01/30 08:19:25;;;;;;;2.22;0.25;;;5.50;99.90;;;;;;5111801;28;20179;-59
2022/01/30 08:21:53;;;;;;;1.33;0.25;;;5.60;99.90;;;;;;5111667;28;20082;-59
2022/01/30 08:24:22;;;;;;;0.45;0.20;;;5.50;99.90;;;;;;5111847;28;20109;-59
2022/01/30 08:26:49;;;;;;;0.40;0.30;;;5.50;99.90;;;;;;5113757;28;20039;-59
2022/01/30 08:29:16;;;;;;;3.05;0.40;;;5.60;99.90;;;;;;5115683;28;20055;-59
2022/01/30 08:31:42;;;;;;;0.43;0.32;;;5.60;99.90;;;;;;5115911;28;20071;-59
2022/01/30 08:34:09;;;;;;;0.80;0.47;;;5.60;99.90;;;;;;5115859;28;20089;-59
2022/01/30 08:36:36;;;;;;;1.15;0.90;;;5.50;99.90;;;;;;5115726;28;20063;-59
2022/01/30 08:39:03;;;;;;;1.17;0.70;;;5.50;99.90;;;;;;5115433;28;20040;-59
2022/01/30 08:41:30;;;;;;;4.63;2.10;;;5.50;99.90;;;;;;5115550;28;20419;-59
2022/01/30 08:43:57;;;;;;;4.55;1.00;;;5.50;99.90;;;;;;5115621;28;20043;-59
2022/01/30 08:46:24;;;;;;;4.30;0.90;;;5.50;99.90;;;;;;5115542;28;20514;-59
2022/01/30 08:48:51;;;;;;;6.78;0.90;;;5.70;99.90;;;;;;5115133;28;20044;-57
2022/01/30 08:51:20;;;;;;;3.28;0.75;;;5.70;99.90;;;;;;5115562;28;20054;-59
2022/01/30 08:53:47;;;;;;;1.20;0.50;;;5.80;99.90;;;;;;5115626;28;20116;-59
2022/01/30 08:56:14;;;;;;;2.85;0.70;;;5.90;99.90;;;;;;5115162;28;20047;-59
2022/01/30 08:58:40;;;;;;;2.00;0.85;;;6.00;99.90;;;;;;5115069;28;20096;-59
2022/01/30 09:01:08;;;;;;;4.50;0.63;;;6.00;99.90;;;;;;5115354;28;20051;-59
2022/01/30 09:03:36;;;;;;;5.38;0.60;;;6.10;99.90;;;;;;5115193;28;20067;-59
2022/01/30 09:06:03;;;;;;;3.25;0.60;;;6.10;99.90;;;;;;5115308;28;20105;-59
2022/01/30 09:08:30;;;;;;;1.75;0.60;;;6.10;99.90;;;;;;5114670;28;20044;-59
2022/01/30 09:10:57;;;;;;;2.20;1.20;;;6.10;99.90;;;;;;5115179;28;20043;-59
2022/01/30 09:13:24;;;;;;;1.63;0.70;;;6.10;99.90;;;;;;5115149;28;20039;-59
2022/01/30 09:15:57;;;;;;;;;;;6.10;99.90;;;;;;5115213;28;20067;-59
2022/01/30 09:18:26;;;;;;;0.80;0.50;;;6.20;99.90;;;;;;5114663;28;19920;-59
2022/01/30 09:20:54;;;;;;;1.13;0.68;;;6.30;99.90;;;;;;5115035;28;20048;-59
2022/01/30 09:23:21;;;;;;;2.72;0.80;;;6.20;99.90;;;;;;5114818;28;20035;-59
2022/01/30 09:25:48;;;;;;;8.07;0.82;;;6.20;99.90;;;;;;5114674;28;20086;-59
2022/01/30 09:28:15;;;;;;;0.60;0.40;;;5.90;99.90;;;;;;5114367;28;20048;-59
2022/01/30 09:30:43;;;;;;;7.53;0.60;;;6.10;99.90;;;;;;5114751;28;20492;-59
2022/01/30 09:33:10;;;;;;;1.27;0.65;;;6.10;99.90;;;;;;5114787;28;20048;-59
2022/01/30 09:35:37;;;;;;;4.18;0.70;;;6.20;99.90;;;;;;5114614;28;20046;-59
2022/01/30 09:38:04;;;;;;;;;;;6.30;99.90;;;;;;5113539;28;20061;-59
2022/01/30 09:40:31;;;;;;;3.50;0.70;;;6.40;99.90;;;;;;5114587;28;19969;-59
2022/01/30 09:42:58;;;;;;;1.25;0.77;;;6.40;99.90;;;;;;5114325;28;20160;-59
2022/01/30 09:45:27;;;;;;;8.15;0.85;;;6.40;99.90;;;;;;5114433;28;20039;-60
2022/01/30 09:47:54;;;;;;;1.05;0.30;;;6.40;99.90;;;;;;5113866;28;20039;-59
2022/01/30 09:50:22;;;;;;;0.85;0.82;;;6.40;99.90;;;;;;5114490;28;20074;-59
2022/01/30 09:52:49;;;;;;;1.10;0.50;;;6.60;99.90;;;;;;5114369;28;20089;-59
2022/01/30 09:55:16;;;;;;;;;;;6.50;99.90;;;;;;5114672;28;20119;-59
2022/01/30 09:57:43;;;;;;;4.28;0.63;;;6.50;99.90;;;;;;5113615;28;19927;-59
2022/01/30 10:00:11;;;;;;;;;;;6.60;99.90;;;;;;5114589;28;20039;-59
2022/01/30 10:02:42;;;;;;;0.70;0.60;;;6.50;99.90;;;;;;5114237;28;19927;-59
2022/01/30 10:05:14;;;;;;;3.78;0.40;;;6.40;99.90;;;;;;5114182;28;20540;-59
2022/01/30 10:07:44;;;;;;;1.02;0.30;;;6.40;99.90;;;;;;5113492;28;20095;-59
2022/01/30 10:10:13;;;;;;;0.82;0.40;;;6.40;99.90;;;;;;5114021;28;20377;-59
2022/01/30 10:13:03;;;;;;;2.17;0.40;;;6.20;99.90;;;;;;5113933;28;20039;-59
2022/01/30 10:15:47;;;;;;;2.40;0.45;;;6.20;99.90;;;;;;5114080;28;20047;-59
2022/01/30 10:18:14;;;;;;;2.35;0.32;;;6.20;99.90;;;;;;5106985;28;20044;-59
2022/01/30 10:20:41;;;;;;;0.40;0.30;;;6.30;99.90;;;;;;5096979;28;20047;-58
2022/01/30 10:23:09;;;;;;;2.42;0.52;;;6.40;99.90;;;;;;5082241;28;20058;-60
2022/01/30 10:25:53;;;;;;;2.38;0.30;;;6.40;99.90;;;;;;5065662;28;20462;-59
2022/01/30 10:28:25;;;;;;;3.60;0.82;;;6.40;99.90;;;;;;5072645;28;20044;-59
2022/01/30 10:30:55;;;;;;;1.35;0.50;;;6.40;99.90;;;;;;5073211;28;20049;-59
2022/01/30 10:33:39;;;;;;;3.08;0.45;;;6.30;99.90;;;;;;5072916;28;20094;-59
2022/01/30 10:36:08;;;;;;;3.83;0.43;;;6.20;99.90;;;;;;5072660;28;20052;-59
2022/01/30 10:38:52;;;;;;;3.00;0.35;;;6.20;99.90;;;;;;5072433;28;20447;-59
2022/01/30 10:41:23;;;;;;;1.48;0.43;;;6.20;99.90;;;;;;5072589;28;20561;-59
2022/01/30 10:44:02;;;;;;;3.00;0.40;;;6.30;99.90;;;;;;5072845;28;20429;-59
2022/01/30 10:46:32;;;;;;;2.38;0.50;;;6.30;99.90;;;;;;5072650;28;20043;-59
2022/01/30 10:49:19;;;;;;;1.35;0.40;;;6.30;99.90;;;;;;5072257;28;20040;-59
2022/01/30 10:51:57;;;;;;;2.28;0.50;;;6.50;99.90;;;;;;5072412;28;20071;-59
2022/01/30 10:54:29;;;;;;;0.93;0.30;;;6.70;99.90;;;;;;5072666;28;20059;-59
2022/01/30 10:57:05;;;;;;;3.33;0.50;;;6.80;99.90;;;;;;5071813;28;20055;-60
2022/01/30 10:59:32;;;;;;;0.75;0.43;;;6.90;99.90;;;;;;5054612;28;20653;-59
2022/01/30 11:02:27;;;;;;;4.32;0.80;;;7.10;99.90;;;;;;5072340;28;20094;-59
2022/01/30 11:05:06;;;;;;;2.15;0.50;;;7.20;99.90;;;;;;5069868;28;20497;-60
2022/01/30 11:07:35;;;;;;;1.65;0.55;;;7.40;99.90;;;;;;5075593;28;20032;-59
2022/01/30 11:10:18;;;;;;;2.03;0.60;;;7.40;99.90;;;;;;5081855;28;20046;-59
2022/01/30 11:12:56;;;;;;;4.07;1.02;;;7.30;99.90;;;;;;5081505;28;20089;-60
2022/01/30 11:18:00;;;;;;;1.98;0.50;;;7.40;99.90;;;;;;5089474;28;20036;-60
2022/01/30 11:20:29;;;;;;;2.30;0.65;;;7.30;99.90;;;;;;5092129;28;20042;-60
2022/01/30 11:23:00;;;;;;;2.55;0.60;;;7.30;99.90;;;;;;5092001;28;20043;-60
2022/01/30 11:25:35;;;;;;;1.40;0.40;;;7.50;99.90;;;;;;5085458;28;20028;-60
2022/01/30 11:28:04;;;;;;;4.07;0.70;;;7.70;99.90;;;;;;5071470;28;20094;-60
2022/01/30 11:30:50;;;;;;;2.58;0.30;;;7.90;99.90;;;;;;5082098;28;20195;-60
2022/01/30 11:33:18;;;;;;;1.30;0.40;;;7.80;99.90;;;;;;5092022;28;20052;-60
2022/01/30 11:35:45;;;;;;;;;;;7.80;99.90;;;;;;5092419;28;20101;-60
2022/01/30 11:38:12;;;;;;;1.00;0.38;;;7.90;99.90;;;;;;5091695;28;20014;-60
2022/01/30 11:40:39;;;;;;;1.02;0.63;;;7.90;99.90;;;;;;5091989;28;20044;-60
2022/01/30 11:43:09;;;;;;;2.03;0.40;;;7.90;99.90;;;;;;5073819;28;20503;-60
2022/01/30 11:45:36;;;;;;;1.08;0.60;;;7.90;99.90;;;;;;5091933;28;20492;-61
2022/01/30 11:48:12;;;;;;;1.85;0.50;;;7.90;99.90;;;;;;5091410;28;20172;-60
2022/01/30 11:50:40;;;;;;;1.88;0.40;;;7.60;99.90;;;;;;5091792;28;20127;-60
2022/01/30 11:53:06;;;;;;;;;;;7.60;99.90;;;;;;5092234;28;20131;-61
2022/01/30 11:55:40;;;;;;;1.23;0.30;;;7.50;99.90;;;;;;5092132;28;19980;-60
2022/01/30 11:58:33;;;;;;;3.40;0.40;;;7.70;99.90;;;;;;5087633;28;20043;-60
2022/01/30 12:01:13;;;;;;;2.03;0.70;;;7.90;99.90;;;;;;5087330;28;20052;-60
2022/01/30 12:03:59;;;;;;;1.27;0.40;;;8.00;99.90;;;;;;5091656;28;20089;-60
2022/01/30 12:06:28;;;;;;;0.50;0.32;;;8.10;99.90;;;;;;5091443;28;20055;-60
2022/01/30 12:08:57;;;;;;;1.98;0.50;;;8.00;99.90;;;;;;5091105;28;20051;-60
2022/01/30 12:11:43;;;;;;;5.32;0.63;;;7.90;99.90;;;;;;5091933;28;20036;-60
2022/01/30 12:14:39;;;;;;;3.67;0.50;;;7.80;99.90;;;;;;5090913;28;20028;-58
2022/01/30 12:17:06;;;;;;;0.88;0.57;;;7.70;99.90;;;;;;5089165;28;20040;-61
2022/01/30 12:19:42;;;;;;;3.47;0.73;;;7.60;99.90;;;;;;5089213;28;20032;-61
2022/01/30 12:22:15;;;;;;;5.45;1.25;;;7.70;99.90;;;;;;5089950;28;20416;-59
2022/01/30 12:24:44;;;;;;;1.55;0.50;;;7.60;99.90;;;;;;5090106;28;20033;-59
2022/01/30 12:27:12;;;;;;;0.88;0.50;;;7.60;99.90;;;;;;5089953;28;20032;-59
2022/01/30 12:29:41;;;;;;;1.73;0.68;;;7.70;99.90;;;;;;5072411;28;20059;-59
2022/01/30 12:32:20;;;;;;;1.95;0.43;;;7.80;99.90;;;;;;5089903;28;20403;-59
2022/01/30 12:34:54;;;;;;;1.05;0.60;;;8.10;99.90;;;;;;5090347;28;20036;-60
2022/01/30 12:37:22;;;;;;;1.48;0.63;;;8.00;99.90;;;;;;5089409;28;20093;-59
2022/01/30 12:39:49;;;;;;;4.93;2.03;;;8.10;99.90;;;;;;5089072;28;20064;-59
2022/01/30 12:42:17;;;;;;;3.42;1.45;;;8.20;99.90;;;;;;5088969;28;20048;-59
2022/01/30 12:44:46;;;;;;;9.32;1.65;;;8.40;99.90;;;;;;5090323;28;20438;-59
2022/01/30 12:47:14;;;;;;;9.88;3.78;;;8.40;99.90;;;;;;5090354;28;20037;-59
2022/01/30 12:49:49;;;;;;;9.82;4.03;;;8.20;99.90;;;;;;5090765;28;20410;-59
2022/01/30 12:52:34;;;;;;;5.53;1.13;;;8.20;99.90;;;;;;5088196;28;20036;-59
2022/01/30 12:55:08;;;;;;;3.15;1.00;;;8.20;99.90;;;;;;5088937;28;20048;-59
2022/01/30 12:57:36;;;;;;;1.38;0.57;;;8.20;99.90;;;;;;5087655;28;20040;-59
2022/01/30 13:00:09;;;;;;;2.83;1.23;;;8.30;99.90;;;;;;5090777;28;20086;-61
2022/01/30 13:02:39;;;;;;;2.83;0.55;;;8.30;99.90;;;;;;5087948;28;20105;-61
2022/01/30 13:05:08;;;;;;;1.80;0.43;;;8.20;99.90;;;;;;5090462;28;20044;-59
2022/01/30 13:07:36;;;;;;;0.30;0.30;;;8.20;99.90;;;;;;5087483;28;20040;-60
2022/01/30 13:10:12;;;;;;;1.23;0.50;;;8.20;99.90;;;;;;5090428;28;20079;-61
2022/01/30 13:12:42;;;;;;;1.52;0.45;;;8.30;99.90;;;;;;5088663;28;20062;-61
2022/01/30 13:15:13;;;;;;;1.50;0.50;;;8.30;99.90;;;;;;5094332;28;20051;-61
2022/01/30 13:17:40;;;;;;;3.28;0.65;;;8.30;99.90;;;;;;5093768;28;20051;-61
2022/01/30 13:20:09;;;;;;;1.55;0.40;;;8.10;99.90;;;;;;5094233;28;20063;-61
2022/01/30 13:22:38;;;;;;;0.63;0.40;;;8.20;99.90;;;;;;5091482;28;20044;-61
2022/01/30 13:25:07;;;;;;;1.20;0.57;;;8.30;99.90;;;;;;5094503;28;20040;-61
2022/01/30 13:27:38;;;;;;;1.38;0.50;;;8.30;99.90;;;;;;5094127;28;20051;-61
2022/01/30 13:30:07;;;;;;;4.70;0.40;;;8.20;99.90;;;;;;5094455;28;20044;-61
2022/01/30 13:32:38;;;;;;;0.40;0.30;;;8.10;99.90;;;;;;5093973;28;20407;-60
2022/01/30 13:35:20;;;;;;;1.48;0.50;;;7.90;99.90;;;;;;5094081;28;20094;-61
2022/01/30 13:37:47;;;;;;;2.47;0.40;;;7.90;99.90;;;;;;5092913;28;20041;-60
2022/01/30 13:40:22;;;;;;;1.33;0.35;;;7.90;99.90;;;;;;5083353;28;20396;-59
2022/01/30 13:42:55;;;;;;;1.23;0.47;;;7.90;99.90;;;;;;5082897;28;20508;-60
2022/01/30 13:48:02;;;;;;;1.20;0.52;;;8.00;99.90;;;;;;5090466;28;20042;-60
2022/01/30 13:50:37;;;;;;;1.23;0.43;;;8.10;99.90;;;;;;5093181;28;20697;-60
2022/01/30 13:53:06;;;;;;;2.60;0.50;;;8.30;99.90;;;;;;5093044;28;20044;-60
2022/01/30 13:55:51;;;;;;;5.22;2.65;;;8.50;99.90;;;;;;5091342;28;20044;-60
2022/01/30 13:58:20;;;;;;;3.42;1.45;;;8.50;99.90;;;;;;5092740;28;20048;-60
2022/01/30 14:00:48;;;;;;;1.63;0.65;;;8.50;99.90;;;;;;5092330;28;20048;-60
2022/01/30 14:03:28;;;;;;;0.70;0.47;;;8.50;99.90;;;;;;5092902;28;20051;-60
2022/01/30 14:05:57;;;;;;;6.32;0.95;;;8.40;99.90;;;;;;5089942;28;20071;-59
2022/01/30 14:08:25;;;;;;;7.18;2.60;;;8.20;99.90;;;;;;5086144;28;20044;-51
2022/01/30 14:11:07;;;;;;;5.63;2.13;;;8.10;99.90;;;;;;5087216;28;20558;-60
2022/01/30 14:13:42;;;;;;;1.23;0.60;;;8.10;99.90;;;;;;5085591;28;20397;-58
2022/01/30 14:16:15;;;;;;;1.75;0.35;;;8.10;99.90;;;;;;5081782;28;20044;-57
2022/01/30 14:18:53;;;;;;;2.80;0.90;;;8.00;99.90;;;;;;5080488;28;20376;-55
2022/01/30 14:21:24;;;;;;;;;;;7.90;99.90;;;;;;5084318;28;20040;-56
2022/01/30 14:23:51;;;;;;;5.65;3.58;;;7.80;99.90;;;;;;5082196;28;20380;-56
2022/01/30 14:26:23;;;;;;;;;;;7.70;99.90;;;;;;5081864;28;20503;-54
2022/01/30 14:29:20;;;;;;;4.00;1.05;;;7.70;99.90;;;;;;5081936;28;19921;-58
2022/01/30 14:31:51;;;;;;;4.65;1.40;;;7.70;99.90;;;;;;5089695;28;20040;-57
2022/01/30 14:34:19;;;;;;;3.05;0.60;;;7.60;99.90;;;;;;5093021;28;20101;-56